createdAt,value
2022-11-01T00:02:08.215Z,14.29
2022-11-01T00:04:37.289Z,14.32
2022-11-01T00:07:05.806Z,14.32
2022-11-01T00:09:36.529Z,14.35
2022-11-01T00:12:05.074Z,14.43
2022-11-01T00:14:35.746Z,14.46
2022-11-01T00:17:04.171Z,14.55
2022-11-01T00:19:33.729Z,14.49
2022-11-01T00:22:02.440Z,14.53
2022-11-01T00:24:31.652Z,14.50
2022-11-01T00:27:01.347Z,14.53
2022-11-01T00:29:29.896Z,14.42
2022-11-01T00:31:58.180Z,14.39
2022-11-01T00:34:26.409Z,14.36
2022-11-01T00:36:54.683Z,14.23
2022-11-01T00:39:26.117Z,14.22
2022-11-01T00:41:57.023Z,14.26
2022-11-01T00:44:26.644Z,14.34
2022-11-01T00:46:54.908Z,14.45
2022-11-01T00:49:23.178Z,14.56
2022-11-01T00:51:52.289Z,14.55
2022-11-01T00:54:20.998Z,14.54
2022-11-01T00:56:49.213Z,14.64
2022-11-01T00:59:17.500Z,14.67
2022-11-01T01:01:47.292Z,14.69
2022-11-01T01:04:15.637Z,14.72
2022-11-01T01:06:43.922Z,14.79
2022-11-01T01:09:13.132Z,14.75
2022-11-01T01:11:42.931Z,14.82
2022-11-01T01:14:12.669Z,14.86
2022-11-01T01:19:12.099Z,14.84
2022-11-01T01:21:42.379Z,14.76
2022-11-01T01:24:12.283Z,14.86
2022-11-01T01:26:40.557Z,14.88
2022-11-01T01:29:08.849Z,14.89
2022-11-01T01:31:37.064Z,14.79
2022-11-01T01:34:05.324Z,14.80
2022-11-01T01:36:34.971Z,14.77
2022-11-01T01:39:03.317Z,14.74
2022-11-01T01:41:48.986Z,14.81
2022-11-01T01:45:06.829Z,14.89
2022-11-01T01:47:40.081Z,14.89
2022-11-01T01:50:10.994Z,14.85
2022-11-01T01:52:46.820Z,14.91
2022-11-01T01:55:18.813Z,15.00
2022-11-01T01:57:47.881Z,15.01
2022-11-01T02:00:16.774Z,14.95
2022-11-01T02:02:46.552Z,14.99
2022-11-01T02:05:23.053Z,15.00
2022-11-01T02:07:53.237Z,14.91
2022-11-01T02:10:22.359Z,14.96
2022-11-01T02:12:51.104Z,14.98
2022-11-01T02:15:24.043Z,15.01
2022-11-01T02:18:06.529Z,14.92
2022-11-01T02:21:10.573Z,14.94
2022-11-01T02:24:11.003Z,14.93
2022-11-01T02:27:03.563Z,14.94
2022-11-01T02:29:52.141Z,14.86
2022-11-01T02:32:27.955Z,14.82
2022-11-01T02:35:00.408Z,14.87
2022-11-01T02:37:31.656Z,14.83
2022-11-01T02:40:05.753Z,14.87
2022-11-01T02:42:38.610Z,15.00
2022-11-01T02:45:10.460Z,14.97
2022-11-01T02:47:41.929Z,14.96
2022-11-01T02:50:12.106Z,14.91
2022-11-01T02:52:41.969Z,14.99
2022-11-01T02:55:29.996Z,15.04
2022-11-01T02:58:01.517Z,15.00
2022-11-01T03:00:32.226Z,14.97
2022-11-01T03:03:12.137Z,15.02
2022-11-01T03:05:54.850Z,15.04
2022-11-01T03:08:27.812Z,15.07
2022-11-01T03:11:05.611Z,15.07
2022-11-01T03:13:48.864Z,15.10
2022-11-01T03:16:24.173Z,15.13
2022-11-01T03:19:05.041Z,15.14
2022-11-01T03:21:41.137Z,15.19
2022-11-01T03:24:18.603Z,15.23
2022-11-01T03:26:55.301Z,15.21
2022-11-01T03:29:27.271Z,15.18
2022-11-01T03:31:57.192Z,15.18
2022-11-01T03:34:27.292Z,15.18
2022-11-01T03:37:01.593Z,15.15
2022-11-01T03:39:35.797Z,15.14
2022-11-01T03:42:08.848Z,15.26
2022-11-01T03:44:42.499Z,15.22
2022-11-01T03:47:11.628Z,15.05
2022-11-01T03:49:41.300Z,14.84
2022-11-01T03:52:10.368Z,14.62
2022-11-01T03:54:38.922Z,14.53
2022-11-01T03:57:07.262Z,14.39
2022-11-01T03:59:37.346Z,14.36
2022-11-01T04:02:05.712Z,14.35
2022-11-01T04:04:34.864Z,14.39
2022-11-01T04:07:04.504Z,14.36
2022-11-01T04:09:32.788Z,14.33
2022-11-01T04:12:00.995Z,14.37
2022-11-01T04:14:47.253Z,14.46
2022-11-01T04:17:33.220Z,14.53
2022-11-01T04:20:18.899Z,14.42
2022-11-01T04:22:49.344Z,14.34
2022-11-01T04:25:19.053Z,14.35
2022-11-01T04:27:47.992Z,14.29
2022-11-01T04:30:16.600Z,14.21
2022-11-01T04:32:45.335Z,14.14
2022-11-01T04:35:14.011Z,14.12
2022-11-01T04:37:42.594Z,14.13
2022-11-01T04:40:13.985Z,14.19
2022-11-01T04:42:42.293Z,14.14
2022-11-01T04:45:11.312Z,14.14
2022-11-01T04:47:39.541Z,14.18
2022-11-01T04:50:08.217Z,14.21
2022-11-01T04:52:36.895Z,14.29
2022-11-01T04:55:05.546Z,14.33
2022-11-01T04:57:39.665Z,14.35
2022-11-01T05:00:11.305Z,14.41
2022-11-01T05:02:41.256Z,14.42
2022-11-01T05:05:11.548Z,14.48
2022-11-01T05:07:39.803Z,14.49
2022-11-01T05:10:11.033Z,14.61
2022-11-01T05:12:40.636Z,14.67
2022-11-01T05:15:09.803Z,14.75
2022-11-01T05:17:42.542Z,14.76
2022-11-01T05:20:11.883Z,14.82
2022-11-01T05:22:40.103Z,14.89
2022-11-01T05:25:09.712Z,14.98
2022-11-01T05:27:40.870Z,14.97
2022-11-01T05:30:10.634Z,15.06
2022-11-01T05:32:38.947Z,15.02
2022-11-01T05:35:07.820Z,15.02
2022-11-01T05:37:36.902Z,15.06
2022-11-01T05:40:05.696Z,15.08
2022-11-01T05:42:34.014Z,15.09
2022-11-01T05:45:03.617Z,15.09
2022-11-01T05:47:33.910Z,15.18
2022-11-01T05:50:02.109Z,15.20
2022-11-01T05:52:30.338Z,15.19
2022-11-01T05:54:58.562Z,15.25
2022-11-01T05:57:33.142Z,15.26
2022-11-01T06:00:03.615Z,15.26
2022-11-01T06:02:40.672Z,15.34
2022-11-01T06:05:09.533Z,15.29
2022-11-01T06:07:37.997Z,15.27
2022-11-01T06:10:07.048Z,15.26
2022-11-01T06:12:35.323Z,15.29
2022-11-01T06:15:05.444Z,15.36
2022-11-01T06:17:35.069Z,15.34
2022-11-01T06:20:03.680Z,15.34
2022-11-01T06:22:32.023Z,15.31
2022-11-01T06:25:00.163Z,15.36
2022-11-01T06:27:29.644Z,15.35
2022-11-01T06:29:58.982Z,15.36
2022-11-01T06:32:28.750Z,15.32
2022-11-01T06:34:56.964Z,15.30
2022-11-01T06:37:26.472Z,15.36
2022-11-01T06:39:54.687Z,15.40
2022-11-01T06:42:22.988Z,15.37
2022-11-01T06:44:52.214Z,15.39
2022-11-01T06:47:20.421Z,15.39
2022-11-01T06:49:50.091Z,15.45
2022-11-01T06:52:18.448Z,15.52
2022-11-01T06:54:46.634Z,15.52
2022-11-01T06:57:14.859Z,15.50
2022-11-01T06:59:43.307Z,15.51
2022-11-01T07:02:14.426Z,15.48
2022-11-01T07:04:43.337Z,15.45
2022-11-01T07:07:13.236Z,15.43
2022-11-01T07:09:41.795Z,15.42
2022-11-01T07:12:09.957Z,15.46
2022-11-01T07:14:38.143Z,15.40
2022-11-01T07:17:07.506Z,15.38
2022-11-01T07:19:36.829Z,15.36
2022-11-01T07:22:06.289Z,15.36
2022-11-01T07:24:35.921Z,15.33
2022-11-01T07:27:04.106Z,15.29
2022-11-01T07:29:32.658Z,15.33
2022-11-01T07:32:01.897Z,15.34
2022-11-01T07:34:30.065Z,15.30
2022-11-01T07:36:58.327Z,15.31
2022-11-01T07:39:28.794Z,15.25
2022-11-01T07:42:00.854Z,15.20
2022-11-01T07:44:29.128Z,15.09
2022-11-01T07:46:57.315Z,15.05
2022-11-01T07:49:25.562Z,15.01
2022-11-01T07:51:53.700Z,15.11
2022-11-01T07:54:21.954Z,15.14
2022-11-01T07:56:50.162Z,15.17
2022-11-01T07:59:20.545Z,15.12
2022-11-01T08:01:48.948Z,15.22
2022-11-01T08:04:17.361Z,15.26
2022-11-01T08:06:49.728Z,15.24
2022-11-01T08:09:22.055Z,15.16
2022-11-01T08:11:50.313Z,15.08
2022-11-01T08:14:19.880Z,15.10
2022-11-01T08:16:49.846Z,15.21
2022-11-01T08:19:18.079Z,15.24
2022-11-01T08:21:47.853Z,15.20
2022-11-01T08:24:16.335Z,15.09
2022-11-01T08:26:44.998Z,15.18
2022-11-01T08:29:13.740Z,15.17
2022-11-01T08:31:43.740Z,15.21
2022-11-01T08:34:16.579Z,15.30
2022-11-01T08:36:45.353Z,15.51
2022-11-01T08:39:13.614Z,15.58
2022-11-01T08:41:41.860Z,15.79
2022-11-01T08:44:10.107Z,16.15
2022-11-01T08:46:38.827Z,16.46
2022-11-01T08:49:08.829Z,16.39
2022-11-01T08:51:37.162Z,16.34
2022-11-01T08:54:06.408Z,16.16
2022-11-01T08:56:34.795Z,16.16
2022-11-01T08:59:03.228Z,16.19
2022-11-01T09:01:32.567Z,16.17
2022-11-01T09:04:03.783Z,16.24
2022-11-01T09:06:36.259Z,16.37
2022-11-01T09:09:05.274Z,16.31
2022-11-01T09:11:33.819Z,16.27
2022-11-01T09:14:01.983Z,16.25
2022-11-01T09:16:30.407Z,16.23
2022-11-01T09:19:01.780Z,16.28
2022-11-01T09:21:31.900Z,16.22
2022-11-01T09:24:03.453Z,16.24
2022-11-01T09:26:31.708Z,16.19
2022-11-01T09:29:00.143Z,16.27
2022-11-01T09:31:29.786Z,17.02
2022-11-01T09:33:58.993Z,18.01
2022-11-01T09:36:28.542Z,18.15
2022-11-01T09:38:59.396Z,17.97
2022-11-01T09:41:36.720Z,17.61
2022-11-01T09:44:07.754Z,17.83
2022-11-01T09:46:48.219Z,17.62
2022-11-01T09:49:23.041Z,17.36
2022-11-01T09:51:51.304Z,17.13
2022-11-01T09:54:23.824Z,17.05
2022-11-01T09:57:05.622Z,17.13
2022-11-01T09:59:38.857Z,17.11
2022-11-01T10:02:34.387Z,17.11
2022-11-01T10:05:17.753Z,17.53
2022-11-01T10:07:55.447Z,17.48
2022-11-01T10:10:36.827Z,17.51
2022-11-01T10:13:25.843Z,17.77
2022-11-01T10:16:02.373Z,17.66
2022-11-01T10:18:32.441Z,17.96
2022-11-01T10:21:04.752Z,18.38
2022-11-01T10:23:40.158Z,18.12
2022-11-01T10:26:14.313Z,17.67
2022-11-01T10:28:53.471Z,17.59
2022-11-01T10:31:25.586Z,17.43
2022-11-01T10:34:01.190Z,17.68
2022-11-01T10:36:34.490Z,17.70
2022-11-01T10:39:54.045Z,17.87
2022-11-01T10:42:11.015Z,18.06
2022-11-01T10:44:45.513Z,18.20
2022-11-01T10:47:19.131Z,18.52
2022-11-01T10:50:07.829Z,18.85
2022-11-01T10:52:46.757Z,18.91
2022-11-01T10:55:21.129Z,18.73
2022-11-01T10:57:53.968Z,18.38
2022-11-01T11:00:24.085Z,18.15
2022-11-01T11:02:56.481Z,18.09
2022-11-01T11:05:27.238Z,18.00
2022-11-01T11:07:57.565Z,18.02
2022-11-01T11:10:28.383Z,17.98
2022-11-01T11:13:01.628Z,17.90
2022-11-01T11:15:40.902Z,17.91
2022-11-01T11:18:17.644Z,17.82
2022-11-01T11:20:51.203Z,17.68
2022-11-01T11:23:21.811Z,17.69
2022-11-01T11:25:51.722Z,17.79
2022-11-01T11:28:25.686Z,17.91
2022-11-01T11:30:55.627Z,17.86
2022-11-01T11:33:24.185Z,17.70
2022-11-01T11:35:59.984Z,17.73
2022-11-01T11:38:46.179Z,17.50
2022-11-01T11:41:27.738Z,17.23
2022-11-01T11:43:56.097Z,17.04
2022-11-01T11:46:25.828Z,16.94
2022-11-01T11:48:58.186Z,16.76
2022-11-01T11:51:27.537Z,16.63
2022-11-01T11:54:26.006Z,16.46
2022-11-01T11:57:08.998Z,16.38
2022-11-01T11:59:38.452Z,16.40
2022-11-01T12:02:18.963Z,16.45
2022-11-01T12:04:52.917Z,16.52
2022-11-01T12:07:32.466Z,16.54
2022-11-01T12:10:03.797Z,16.47
2022-11-01T12:12:34.801Z,16.38
2022-11-01T12:15:28.745Z,16.29
2022-11-01T12:18:12.849Z,16.18
2022-11-01T12:20:43.266Z,16.25
2022-11-01T12:23:18.160Z,16.31
2022-11-01T12:25:48.126Z,16.26
2022-11-01T12:28:22.383Z,16.39
2022-11-01T12:30:54.344Z,16.76
2022-11-01T12:33:29.020Z,16.88
2022-11-01T12:35:59.875Z,17.00
2022-11-01T12:38:40.977Z,17.05
2022-11-01T12:41:27.127Z,17.19
2022-11-01T12:44:06.101Z,17.16
2022-11-01T12:46:45.085Z,16.94
2022-11-01T12:49:27.957Z,16.93
2022-11-01T12:54:40.053Z,16.85
2022-11-01T12:57:16.853Z,16.77
2022-11-01T12:59:47.332Z,16.69
2022-11-01T13:02:30.390Z,16.79
2022-11-01T13:05:05.956Z,16.94
2022-11-01T13:07:44.858Z,16.81
2022-11-01T13:10:23.253Z,16.69
2022-11-01T13:13:01.825Z,16.86
2022-11-01T13:15:37.347Z,16.96
2022-11-01T13:18:13.043Z,17.04
2022-11-01T13:20:53.684Z,17.25
2022-11-01T13:23:30.427Z,17.29
2022-11-01T13:26:05.323Z,17.39
2022-11-01T13:28:58.486Z,17.45
2022-11-01T13:31:36.706Z,17.59
2022-11-01T13:34:26.302Z,17.77
2022-11-01T13:37:06.198Z,17.86
2022-11-01T13:39:48.376Z,17.99
2022-11-01T13:42:18.732Z,18.16
2022-11-01T13:44:49.976Z,18.26
2022-11-01T13:47:52.706Z,18.38
2022-11-01T13:50:59.416Z,18.14
2022-11-01T13:53:34.876Z,18.05
2022-11-01T13:56:11.934Z,17.94
2022-11-01T13:58:41.073Z,17.82
2022-11-01T14:01:35.566Z,17.56
2022-11-01T14:04:48.446Z,17.27
2022-11-01T14:07:17.696Z,16.96
2022-11-01T14:09:48.978Z,15.80
2022-11-01T14:12:37.290Z,15.19
2022-11-01T14:15:26.925Z,14.78
2022-11-01T14:18:07.949Z,14.53
2022-11-01T14:20:51.805Z,14.29
2022-11-01T14:23:54.513Z,14.22
2022-11-01T14:26:50.291Z,14.21
2022-11-01T14:29:18.734Z,14.25
2022-11-01T14:31:49.151Z,14.32
2022-11-01T14:34:25.699Z,14.24
2022-11-01T14:36:57.491Z,14.12
2022-11-01T14:39:32.703Z,14.08
2022-11-01T14:42:05.380Z,14.03
2022-11-01T14:44:37.121Z,14.04
2022-11-01T14:47:12.196Z,14.08
2022-11-01T14:49:43.760Z,14.12
2022-11-01T14:52:17.618Z,14.13
2022-11-01T14:54:50.073Z,14.13
2022-11-01T14:57:26.007Z,14.02
2022-11-01T14:59:54.813Z,14.14
2022-11-01T15:02:24.218Z,14.24
2022-11-01T15:04:58.826Z,14.33
2022-11-01T15:07:31.224Z,14.39
2022-11-01T15:10:02.500Z,14.35
2022-11-01T15:12:36.961Z,14.44
2022-11-01T15:15:06.535Z,14.51
2022-11-01T15:17:37.193Z,14.72
2022-11-01T15:20:14.786Z,14.80
2022-11-01T15:22:43.817Z,14.76
2022-11-01T15:25:22.327Z,14.86
2022-11-01T15:27:52.371Z,14.82
2022-11-01T15:30:22.878Z,14.84
2022-11-01T15:33:13.744Z,14.76
2022-11-01T15:35:44.108Z,14.64
2022-11-01T15:38:21.228Z,14.63
2022-11-01T15:40:52.277Z,14.54
2022-11-01T15:43:23.370Z,14.52
2022-11-01T15:45:55.225Z,14.61
2022-11-01T15:48:28.455Z,14.61
2022-11-01T15:51:00.816Z,14.68
2022-11-01T15:53:32.618Z,14.65
2022-11-01T15:56:08.362Z,14.73
2022-11-01T15:58:43.893Z,14.83
2022-11-01T16:01:16.975Z,14.84
2022-11-01T16:03:51.077Z,14.67
2022-11-01T16:06:25.529Z,14.53
2022-11-01T16:08:57.598Z,14.39
2022-11-01T16:11:29.913Z,14.26
2022-11-01T16:14:02.382Z,14.21
2022-11-01T16:16:30.491Z,13.99
2022-11-01T16:18:58.663Z,13.99
2022-11-01T16:21:30.959Z,13.95
2022-11-01T16:24:06.813Z,13.93
2022-11-01T16:26:55.945Z,13.88
2022-11-01T16:29:50.337Z,13.82
2022-11-01T16:32:20.789Z,13.81
2022-11-01T16:34:49.286Z,13.72
2022-11-01T16:37:22.784Z,13.74
2022-11-01T16:39:51.130Z,13.74
2022-11-01T16:42:20.441Z,13.74
2022-11-01T16:44:55.225Z,13.69
2022-11-01T16:47:23.897Z,13.72
2022-11-01T16:49:54.415Z,13.66
2022-11-01T16:52:23.204Z,13.66
2022-11-01T16:54:52.784Z,13.61
2022-11-01T16:57:25.961Z,13.62
2022-11-01T16:59:56.268Z,13.61
2022-11-01T17:02:26.841Z,13.64
2022-11-01T17:04:58.600Z,13.59
2022-11-01T17:07:27.714Z,13.62
2022-11-01T17:09:56.337Z,13.65
2022-11-01T17:12:24.689Z,13.69
2022-11-01T17:14:53.704Z,13.70
2022-11-01T17:17:24.857Z,13.67
2022-11-01T17:19:59.643Z,13.64
2022-11-01T17:22:34.819Z,13.62
2022-11-01T17:25:04.525Z,13.61
2022-11-01T17:27:32.958Z,13.60
2022-11-01T17:30:01.478Z,13.64
2022-11-01T17:32:32.679Z,13.74
2022-11-01T17:35:00.884Z,13.80
2022-11-01T17:37:32.398Z,13.92
2022-11-01T17:40:01.913Z,13.99
2022-11-01T17:42:30.264Z,14.08
2022-11-01T17:44:58.577Z,13.97
2022-11-01T17:47:27.461Z,13.96
2022-11-01T17:49:57.124Z,14.00
2022-11-01T17:52:41.568Z,13.92
2022-11-01T17:55:39.423Z,13.91
2022-11-01T18:02:09.501Z,13.88
2022-11-01T18:04:43.286Z,13.87
2022-11-01T18:07:36.532Z,13.83
2022-11-01T18:10:14.586Z,13.80
2022-11-01T18:13:05.154Z,13.87
2022-11-01T18:15:39.487Z,13.83
2022-11-01T18:18:24.890Z,13.81
2022-11-01T18:20:59.792Z,13.91
2022-11-01T18:23:29.660Z,13.94
2022-11-01T18:25:57.865Z,14.00
2022-11-01T18:28:27.795Z,14.01
2022-11-01T18:30:59.005Z,14.00
2022-11-01T18:33:38.284Z,13.85
2022-11-01T18:36:14.940Z,13.77
2022-11-01T18:38:52.607Z,13.79
2022-11-01T18:41:22.174Z,13.76
2022-11-01T18:43:53.654Z,13.72
2022-11-01T18:46:26.833Z,13.67
2022-11-01T18:49:00.075Z,13.72
2022-11-01T18:51:31.288Z,13.69
2022-11-01T18:54:22.226Z,13.64
2022-11-01T18:56:54.010Z,13.69
2022-11-01T18:59:29.421Z,13.62
2022-11-01T19:02:01.721Z,13.66
2022-11-01T19:04:32.576Z,13.68
2022-11-01T19:07:11.479Z,13.71
2022-11-01T19:09:44.086Z,13.75
2022-11-01T19:12:15.950Z,13.80
2022-11-01T19:14:45.486Z,13.83
2022-11-01T19:17:21.048Z,13.90
2022-11-01T19:19:50.656Z,13.87
2022-11-01T19:22:44.537Z,13.77
2022-11-01T19:25:21.794Z,13.85
2022-11-01T19:27:52.373Z,13.89
2022-11-01T19:30:27.497Z,13.89
2022-11-01T19:32:58.146Z,13.79
2022-11-01T19:35:26.448Z,13.77
2022-11-01T19:37:56.216Z,13.75
2022-11-01T19:40:29.751Z,13.67
2022-11-01T19:43:01.151Z,13.68
2022-11-01T19:45:33.109Z,13.56
2022-11-01T19:48:04.499Z,13.49
2022-11-01T19:50:39.519Z,13.45
2022-11-01T19:53:19.041Z,13.42
2022-11-01T19:55:53.453Z,13.41
2022-11-01T19:58:26.960Z,13.38
2022-11-01T20:01:12.294Z,13.35
2022-11-01T20:03:44.353Z,13.24
2022-11-01T20:06:16.079Z,13.31
2022-11-01T20:08:46.297Z,13.33
2022-11-01T20:11:16.111Z,13.31
2022-11-01T20:13:44.225Z,13.29
2022-11-01T20:16:12.406Z,13.34
2022-11-01T20:18:41.227Z,13.39
2022-11-01T20:21:09.673Z,13.48
2022-11-01T20:23:39.053Z,13.49
2022-11-01T20:26:07.579Z,13.51
2022-11-01T20:28:37.196Z,13.57
2022-11-01T20:31:06.081Z,13.63
2022-11-01T20:33:34.512Z,13.71
2022-11-01T20:36:08.284Z,13.70
2022-11-01T20:38:39.309Z,13.68
2022-11-01T20:41:07.767Z,13.60
2022-11-01T20:43:37.405Z,13.50
2022-11-01T20:46:05.690Z,13.38
2022-11-01T20:48:34.003Z,13.33
2022-11-01T20:51:02.302Z,13.33
2022-11-01T20:53:30.557Z,13.27
2022-11-01T20:55:58.805Z,13.21
2022-11-01T20:58:27.807Z,13.15
2022-11-01T21:00:58.656Z,13.19
2022-11-01T21:03:29.587Z,13.16
2022-11-01T21:05:58.703Z,13.13
2022-11-01T21:08:30.289Z,13.13
2022-11-01T21:11:02.101Z,13.11
2022-11-01T21:13:34.280Z,13.11
2022-11-01T21:16:09.014Z,13.06
2022-11-01T21:18:42.248Z,13.10
2022-11-01T21:21:32.326Z,13.08
2022-11-01T21:24:02.097Z,13.08
2022-11-01T21:26:32.961Z,13.11
2022-11-01T21:29:04.939Z,13.14
2022-11-01T21:31:39.008Z,13.21
2022-11-01T21:34:24.543Z,13.29
2022-11-01T21:36:52.920Z,13.32
2022-11-01T21:39:23.633Z,13.32
2022-11-01T21:41:53.358Z,13.31
2022-11-01T21:44:34.961Z,13.26
2022-11-01T21:47:16.476Z,13.22
2022-11-01T21:49:44.976Z,13.19
2022-11-01T21:52:13.298Z,13.15
2022-11-01T21:54:42.667Z,13.14
2022-11-01T21:57:12.273Z,13.12
2022-11-01T21:59:41.230Z,13.07
2022-11-01T22:02:12.355Z,13.07
2022-11-01T22:04:41.025Z,13.04
2022-11-01T22:07:10.134Z,13.01
2022-11-01T22:09:39.118Z,12.99
2022-11-01T22:12:08.247Z,12.97
2022-11-01T22:14:37.520Z,12.95
2022-11-01T22:17:05.802Z,12.95
2022-11-01T22:19:35.480Z,12.96
2022-11-01T22:22:03.728Z,12.92
2022-11-01T22:24:32.159Z,12.92
2022-11-01T22:27:00.454Z,12.92
2022-11-01T22:29:28.739Z,12.95
2022-11-01T22:31:58.255Z,13.02
2022-11-01T22:34:27.211Z,13.08
2022-11-01T22:36:57.836Z,13.16
2022-11-01T22:39:27.697Z,13.25
2022-11-01T22:41:56.528Z,13.31
2022-11-01T22:44:28.182Z,13.32
2022-11-01T22:46:59.529Z,13.30
2022-11-01T22:49:30.094Z,13.31
2022-11-01T22:52:05.241Z,13.26
2022-11-01T22:54:40.185Z,13.28
2022-11-01T22:57:16.007Z,13.30
2022-11-01T22:59:48.042Z,13.28
2022-11-01T23:02:31.258Z,13.24
2022-11-01T23:05:20.428Z,13.19
2022-11-01T23:07:51.710Z,13.15
2022-11-01T23:10:25.799Z,13.09
2022-11-01T23:13:17.609Z,13.04
2022-11-01T23:15:46.402Z,12.95
2022-11-01T23:18:22.334Z,12.92
2022-11-01T23:20:56.321Z,12.93
2022-11-01T23:23:26.165Z,13.00
2022-11-01T23:26:00.406Z,13.09
2022-11-01T23:28:29.192Z,13.13
2022-11-01T23:30:58.458Z,13.10
2022-11-01T23:33:34.482Z,13.05
2022-11-01T23:36:02.862Z,12.95
2022-11-01T23:38:42.322Z,12.84
2022-11-01T23:41:20.915Z,12.74
2022-11-01T23:43:49.918Z,12.65
2022-11-01T23:46:19.550Z,12.59
2022-11-01T23:48:48.240Z,12.55
2022-11-01T23:51:21.177Z,12.49
2022-11-01T23:53:54.245Z,12.43
2022-11-01T23:56:23.184Z,12.39
2022-11-01T23:58:56.673Z,12.34
